sensor_id;sensor_type;location;lat;lon;timestamp;pressure;altitude;pressure_sealevel;temperature;humidity
39739;BME280;25422;48.286;8.484;2022-11-27T00:00:16;95162.88;;;-3.98;100.00
39739;BME280;25422;48.286;8.484;2022-11-27T00:02:42;95163.19;;;-4.05;100.00
39739;BME280;25422;48.286;8.484;2022-11-27T00:05:07;95155.69;;;-4.10;100.00
39739;BME280;25422;48.286;8.484;2022-11-27T00:07:33;95154.94;;;-4.14;100.00
39739;BME280;25422;48.286;8.484;2022-11-27T00:09:58;95156.88;;;-4.19;100.00
39739;BME280;25422;48.286;8.484;2022-11-27T00:12:24;95158.00;;;-4.28;100.00
39739;BME280;25422;48.286;8.484;2022-11-27T00:14:49;95152.41;;;-4.37;100.00
39739;BME280;25422;48.286;8.484;2022-11-27T00:17:14;95142.06;;;-4.34;100.00
39739;BME280;25422;48.286;8.484;2022-11-27T00:19:40;95135.53;;;-4.42;100.00
39739;BME280;25422;48.286;8.484;2022-11-27T00:22:05;95132.31;;;-4.47;100.00
39739;BME280;25422;48.286;8.484;2022-11-27T00:24:31;95121.25;;;-4.47;100.00
39739;BME280;25422;48.286;8.484;2022-11-27T00:26:56;95118.03;;;-4.52;100.00
39739;BME280;25422;48.286;8.484;2022-11-27T00:29:22;95120.53;;;-4.51;100.00
39739;BME280;25422;48.286;8.484;2022-11-27T00:31:47;95122.53;;;-4.59;100.00
39739;BME280;25422;48.286;8.484;2022-11-27T00:34:12;95120.78;;;-4.57;100.00
39739;BME280;25422;48.286;8.484;2022-11-27T00:36:38;95108.09;;;-4.60;100.00
39739;BME280;25422;48.286;8.484;2022-11-27T00:39:04;95105.66;;;-4.63;100.00
39739;BME280;25422;48.286;8.484;2022-11-27T00:41:30;95100.66;;;-4.66;100.00
39739;BME280;25422;48.286;8.484;2022-11-27T00:43:56;95103.16;;;-4.65;100.00
39739;BME280;25422;48.286;8.484;2022-11-27T00:46:25;95096.44;;;-4.67;100.00
39739;BME280;25422;48.286;8.484;2022-11-27T00:48:51;95092.16;;;-4.67;100.00
39739;BME280;25422;48.286;8.484;2022-11-27T00:51:18;95104.09;;;-4.67;100.00
39739;BME280;25422;48.286;8.484;2022-11-27T00:53:45;95095.66;;;-4.69;100.00
39739;BME280;25422;48.286;8.484;2022-11-27T00:56:19;95087.16;;;-4.70;100.00
39739;BME280;25422;48.286;8.484;2022-11-27T00:58:45;95093.09;;;-4.69;100.00
39739;BME280;25422;48.286;8.484;2022-11-27T01:01:21;95087.09;;;-4.68;100.00
39739;BME280;25422;48.286;8.484;2022-11-27T01:03:48;95090.34;;;-4.63;100.00
39739;BME280;25422;48.286;8.484;2022-11-27T01:06:14;95077.75;;;-4.68;100.00
39739;BME280;25422;48.286;8.484;2022-11-27T01:08:40;95079.50;;;-4.70;100.00
39739;BME280;25422;48.286;8.484;2022-11-27T01:11:06;95076.84;;;-4.67;100.00
39739;BME280;25422;48.286;8.484;2022-11-27T01:13:35;95077.34;;;-4.57;100.00
39739;BME280;25422;48.286;8.484;2022-11-27T01:16:07;95075.44;;;-4.52;100.00
39739;BME280;25422;48.286;8.484;2022-11-27T01:18:34;95078.06;;;-4.53;100.00
39739;BME280;25422;48.286;8.484;2022-11-27T01:21:00;95078.00;;;-4.52;100.00
39739;BME280;25422;48.286;8.484;2022-11-27T01:23:26;95070.19;;;-4.47;100.00
39739;BME280;25422;48.286;8.484;2022-11-27T01:25:52;95073.63;;;-4.48;100.00
39739;BME280;25422;48.286;8.484;2022-11-27T01:28:19;95066.97;;;-4.52;100.00
39739;BME280;25422;48.286;8.484;2022-11-27T01:30:45;95060.06;;;-4.50;100.00
39739;BME280;25422;48.286;8.484;2022-11-27T01:33:11;95060.78;;;-4.47;100.00
39739;BME280;25422;48.286;8.484;2022-11-27T01:35:36;95059.03;;;-4.45;100.00
39739;BME280;25422;48.286;8.484;2022-11-27T01:38:02;95048.00;;;-4.47;100.00
39739;BME280;25422;48.286;8.484;2022-11-27T01:40:27;95050.41;;;-4.42;100.00
39739;BME280;25422;48.286;8.484;2022-11-27T01:42:53;95052.00;;;-4.40;100.00
39739;BME280;25422;48.286;8.484;2022-11-27T01:45:19;95039.94;;;-4.36;100.00
39739;BME280;25422;48.286;8.484;2022-11-27T01:47:58;95044.16;;;-4.35;100.00
39739;BME280;25422;48.286;8.484;2022-11-27T01:50:34;95043.44;;;-4.38;100.00
39739;BME280;25422;48.286;8.484;2022-11-27T01:53:11;95036.72;;;-4.41;100.00
39739;BME280;25422;48.286;8.484;2022-11-27T01:55:44;95035.13;;;-4.44;100.00
39739;BME280;25422;48.286;8.484;2022-11-27T01:58:14;95025.91;;;-4.48;100.00
39739;BME280;25422;48.286;8.484;2022-11-27T02:00:41;95025.91;;;-4.48;100.00
39739;BME280;25422;48.286;8.484;2022-11-27T02:03:07;95024.91;;;-4.44;100.00
39739;BME280;25422;48.286;8.484;2022-11-27T02:05:33;95034.06;;;-4.38;100.00
39739;BME280;25422;48.286;8.484;2022-11-27T02:08:02;95028.00;;;-4.35;100.00
39739;BME280;25422;48.286;8.484;2022-11-27T02:10:43;95024.63;;;-4.36;100.00
39739;BME280;25422;48.286;8.484;2022-11-27T02:21:57;95011.78;;;-4.57;100.00
39739;BME280;25422;48.286;8.484;2022-11-27T02:29:56;94999.53;;;-4.70;100.00
39739;BME280;25422;48.286;8.484;2022-11-27T02:34:57;95006.66;;;-4.79;100.00
39739;BME280;25422;48.286;8.484;2022-11-27T02:37:31;95011.09;;;-4.84;100.00
39739;BME280;25422;48.286;8.484;2022-11-27T02:42:39;95008.47;;;-4.82;100.00
39739;BME280;25422;48.286;8.484;2022-11-27T02:45:10;95014.34;;;-4.80;100.00
39739;BME280;25422;48.286;8.484;2022-11-27T02:47:37;95016.19;;;-4.84;100.00
39739;BME280;25422;48.286;8.484;2022-11-27T02:50:07;95016.53;;;-4.93;100.00
39739;BME280;25422;48.286;8.484;2022-11-27T02:52:35;95026.00;;;-4.97;100.00
39739;BME280;25422;48.286;8.484;2022-11-27T02:55:04;95022.69;;;-4.99;100.00
39739;BME280;25422;48.286;8.484;2022-11-27T02:57:32;95014.28;;;-5.02;100.00
39739;BME280;25422;48.286;8.484;2022-11-27T03:00:00;95009.97;;;-5.00;100.00
39739;BME280;25422;48.286;8.484;2022-11-27T03:02:31;95014.16;;;-4.98;100.00
39739;BME280;25422;48.286;8.484;2022-11-27T03:04:59;94996.44;;;-5.02;100.00
39739;BME280;25422;48.286;8.484;2022-11-27T03:07:36;94992.59;;;-4.91;100.00
39739;BME280;25422;48.286;8.484;2022-11-27T03:10:09;94989.19;;;-4.91;100.00
39739;BME280;25422;48.286;8.484;2022-11-27T03:12:37;94985.81;;;-4.92;100.00
39739;BME280;25422;48.286;8.484;2022-11-27T03:15:04;94982.66;;;-4.98;100.00
39739;BME280;25422;48.286;8.484;2022-11-27T03:17:34;94980.44;;;-5.08;100.00
39739;BME280;25422;48.286;8.484;2022-11-27T03:22:36;94980.75;;;-5.15;100.00
39739;BME280;25422;48.286;8.484;2022-11-27T03:25:02;94982.69;;;-5.22;100.00
39739;BME280;25422;48.286;8.484;2022-11-27T03:27:43;94975.28;;;-5.30;100.00
39739;BME280;25422;48.286;8.484;2022-11-27T03:30:11;94972.41;;;-5.20;100.00
39739;BME280;25422;48.286;8.484;2022-11-27T03:32:38;94969.97;;;-5.23;100.00
39739;BME280;25422;48.286;8.484;2022-11-27T03:35:07;94967.63;;;-5.30;100.00
39739;BME280;25422;48.286;8.484;2022-11-27T03:37:33;94965.22;;;-5.33;100.00
39739;BME280;25422;48.286;8.484;2022-11-27T03:39:58;94963.09;;;-5.21;100.00
39739;BME280;25422;48.286;8.484;2022-11-27T03:42:42;94958.72;;;-5.18;100.00
39739;BME280;25422;48.286;8.484;2022-11-27T03:45:18;94961.34;;;-5.21;100.00
39739;BME280;25422;48.286;8.484;2022-11-27T03:58:22;94958.81;;;-5.45;100.00
39739;BME280;25422;48.286;8.484;2022-11-27T04:00:51;94958.81;;;-5.45;100.00
39739;BME280;25422;48.286;8.484;2022-11-27T04:03:23;94955.44;;;-5.45;100.00
39739;BME280;25422;48.286;8.484;2022-11-27T04:05:48;94949.50;;;-5.46;100.00
39739;BME280;25422;48.286;8.484;2022-11-27T04:08:14;94941.69;;;-5.41;100.00
39739;BME280;25422;48.286;8.484;2022-11-27T04:10:39;94942.34;;;-5.36;100.00
39739;BME280;25422;48.286;8.484;2022-11-27T04:13:05;94940.91;;;-5.43;100.00
39739;BME280;25422;48.286;8.484;2022-11-27T04:15:30;94934.03;;;-5.41;100.00
39739;BME280;25422;48.286;8.484;2022-11-27T04:17:55;94932.44;;;-5.44;100.00
39739;BME280;25422;48.286;8.484;2022-11-27T04:20:21;94934.38;;;-5.50;100.00
39739;BME280;25422;48.286;8.484;2022-11-27T04:22:46;94933.50;;;-5.51;100.00
39739;BME280;25422;48.286;8.484;2022-11-27T04:25:12;94926.03;;;-5.55;100.00
39739;BME280;25422;48.286;8.484;2022-11-27T04:27:37;94922.56;;;-5.53;100.00
39739;BME280;25422;48.286;8.484;2022-11-27T04:30:03;94924.22;;;-5.52;100.00
39739;BME280;25422;48.286;8.484;2022-11-27T04:32:29;94922.63;;;-5.54;100.00
39739;BME280;25422;48.286;8.484;2022-11-27T04:34:54;94924.22;;;-5.52;100.00
39739;BME280;25422;48.286;8.484;2022-11-27T04:37:20;94924.22;;;-5.52;100.00
39739;BME280;25422;48.286;8.484;2022-11-27T04:39:45;94932.56;;;-5.48;100.00
39739;BME280;25422;48.286;8.484;2022-11-27T04:42:11;94933.56;;;-5.52;100.00
39739;BME280;25422;48.286;8.484;2022-11-27T04:44:36;94947.63;;;-5.40;100.00
39739;BME280;25422;48.286;8.484;2022-11-27T04:47:01;94947.56;;;-5.39;100.00
39739;BME280;25422;48.286;8.484;2022-11-27T04:49:27;94941.34;;;-5.32;100.00
39739;BME280;25422;48.286;8.484;2022-11-27T04:51:52;94941.31;;;-5.30;100.00
39739;BME280;25422;48.286;8.484;2022-11-27T04:54:18;94941.94;;;-5.23;100.00
39739;BME280;25422;48.286;8.484;2022-11-27T04:56:43;94935.22;;;-5.26;100.00
39739;BME280;25422;48.286;8.484;2022-11-27T04:59:09;94940.19;;;-5.23;100.00
39739;BME280;25422;48.286;8.484;2022-11-27T05:01:34;94939.41;;;-5.25;100.00
39739;BME280;25422;48.286;8.484;2022-11-27T05:03:59;94933.41;;;-5.24;100.00
39739;BME280;25422;48.286;8.484;2022-11-27T05:06:25;94944.63;;;-5.28;100.00
39739;BME280;25422;48.286;8.484;2022-11-27T05:08:52;94948.41;;;-5.38;100.00
39739;BME280;25422;48.286;8.484;2022-11-27T05:11:24;94949.44;;;-5.44;100.00
39739;BME280;25422;48.286;8.484;2022-11-27T05:13:49;94934.13;;;-5.44;100.00
39739;BME280;25422;48.286;8.484;2022-11-27T05:16:35;94921.00;;;-5.33;100.00
39739;BME280;25422;48.286;8.484;2022-11-27T05:19:00;94919.28;;;-5.33;100.00
39739;BME280;25422;48.286;8.484;2022-11-27T05:21:25;94916.91;;;-5.37;100.00
39739;BME280;25422;48.286;8.484;2022-11-27T05:23:51;94910.41;;;-5.46;100.00
39739;BME280;25422;48.286;8.484;2022-11-27T05:26:16;94914.03;;;-5.52;100.00
39739;BME280;25422;48.286;8.484;2022-11-27T05:28:42;94905.69;;;-5.57;100.00
39739;BME280;25422;48.286;8.484;2022-11-27T05:31:07;94904.03;;;-5.58;100.00
39739;BME280;25422;48.286;8.484;2022-11-27T05:33:33;94901.38;;;-5.55;100.00
39739;BME280;25422;48.286;8.484;2022-11-27T05:35:58;94897.81;;;-5.51;100.00
39739;BME280;25422;48.286;8.484;2022-11-27T05:38:24;94896.81;;;-5.47;100.00
39739;BME280;25422;48.286;8.484;2022-11-27T05:40:49;94895.28;;;-5.27;100.00
39739;BME280;25422;48.286;8.484;2022-11-27T05:43:14;94899.25;;;-5.20;100.00
39739;BME280;25422;48.286;8.484;2022-11-27T05:45:40;94893.00;;;-5.11;100.00
39739;BME280;25422;48.286;8.484;2022-11-27T05:48:05;94890.50;;;-4.91;100.00
39739;BME280;25422;48.286;8.484;2022-11-27T05:50:31;94888.50;;;-4.82;100.00
39739;BME280;25422;48.286;8.484;2022-11-27T05:52:57;94894.13;;;-4.74;100.00
39739;BME280;25422;48.286;8.484;2022-11-27T05:55:23;94898.88;;;-4.65;100.00
39739;BME280;25422;48.286;8.484;2022-11-27T05:57:48;94904.59;;;-4.58;100.00
39739;BME280;25422;48.286;8.484;2022-11-27T06:00:14;94905.16;;;-4.51;100.00
39739;BME280;25422;48.286;8.484;2022-11-27T06:02:40;94905.75;;;-4.45;100.00
39739;BME280;25422;48.286;8.484;2022-11-27T06:05:06;94916.56;;;-4.38;100.00
39739;BME280;25422;48.286;8.484;2022-11-27T06:07:31;94913.69;;;-4.30;100.00
39739;BME280;25422;48.286;8.484;2022-11-27T06:09:57;94920.31;;;-4.26;100.00
39739;BME280;25422;48.286;8.484;2022-11-27T06:12:22;94919.31;;;-4.22;100.00
39739;BME280;25422;48.286;8.484;2022-11-27T06:14:48;94915.94;;;-4.22;100.00
39739;BME280;25422;48.286;8.484;2022-11-27T06:17:13;94903.16;;;-4.22;100.00
39739;BME280;25422;48.286;8.484;2022-11-27T06:19:41;94902.84;;;-4.15;100.00
39739;BME280;25422;48.286;8.484;2022-11-27T06:22:07;94908.41;;;-4.05;100.00
39739;BME280;25422;48.286;8.484;2022-11-27T06:24:33;94907.31;;;-3.99;100.00
39739;BME280;25422;48.286;8.484;2022-11-27T06:26:58;94905.56;;;-3.97;100.00
39739;BME280;25422;48.286;8.484;2022-11-27T06:29:24;94902.72;;;-3.91;100.00
39739;BME280;25422;48.286;8.484;2022-11-27T06:31:49;94905.22;;;-3.90;100.00
39739;BME280;25422;48.286;8.484;2022-11-27T06:34:14;94898.38;;;-3.89;100.00
39739;BME280;25422;48.286;8.484;2022-11-27T06:36:40;94896.59;;;-3.87;100.00
39739;BME280;25422;48.286;8.484;2022-11-27T06:39:06;94887.88;;;-3.83;100.00
39739;BME280;25422;48.286;8.484;2022-11-27T06:41:32;94876.56;;;-3.77;100.00
39739;BME280;25422;48.286;8.484;2022-11-27T06:43:59;94873.75;;;-3.71;100.00
39739;BME280;25422;48.286;8.484;2022-11-27T06:46:25;94875.91;;;-3.62;100.00
39739;BME280;25422;48.286;8.484;2022-11-27T06:48:52;94879.94;;;-3.56;100.00
39739;BME280;25422;48.286;8.484;2022-11-27T06:51:21;94873.63;;;-3.49;100.00
39739;BME280;25422;48.286;8.484;2022-11-27T06:53:47;94875.72;;;-3.38;100.00
39739;BME280;25422;48.286;8.484;2022-11-27T06:56:15;94874.00;;;-3.37;100.00
39739;BME280;25422;48.286;8.484;2022-11-27T06:58:42;94872.91;;;-3.32;100.00
39739;BME280;25422;48.286;8.484;2022-11-27T07:01:11;94870.97;;;-3.27;100.00
39739;BME280;25422;48.286;8.484;2022-11-27T07:03:37;94869.63;;;-3.16;100.00
39739;BME280;25422;48.286;8.484;2022-11-27T07:06:05;94863.69;;;-2.98;100.00
39739;BME280;25422;48.286;8.484;2022-11-27T07:08:31;94851.75;;;-2.80;100.00
39739;BME280;25422;48.286;8.484;2022-11-27T07:11:05;94849.88;;;-2.76;100.00
39739;BME280;25422;48.286;8.484;2022-11-27T07:13:32;94852.22;;;-2.72;100.00
39739;BME280;25422;48.286;8.484;2022-11-27T07:16:06;94847.41;;;-2.78;100.00
39739;BME280;25422;48.286;8.484;2022-11-27T07:18:36;94852.09;;;-2.68;100.00
39739;BME280;25422;48.286;8.484;2022-11-27T07:21:03;94862.19;;;-2.65;100.00
39739;BME280;25422;48.286;8.484;2022-11-27T07:23:29;94848.00;;;-2.55;100.00
39739;BME280;25422;48.286;8.484;2022-11-27T07:25:54;94841.63;;;-2.46;100.00
39739;BME280;25422;48.286;8.484;2022-11-27T07:28:20;94832.91;;;-2.25;100.00
39739;BME280;25422;48.286;8.484;2022-11-27T07:30:53;94844.84;;;-2.08;100.00
39739;BME280;25422;48.286;8.484;2022-11-27T07:33:19;94847.09;;;-1.84;100.00
39739;BME280;25422;48.286;8.484;2022-11-27T07:35:44;94849.22;;;-1.59;100.00
39739;BME280;25422;48.286;8.484;2022-11-27T07:38:09;94856.06;;;-1.42;100.00
39739;BME280;25422;48.286;8.484;2022-11-27T07:40:37;94844.97;;;-1.26;100.00
39739;BME280;25422;48.286;8.484;2022-11-27T07:43:02;94824.38;;;-1.25;100.00
39739;BME280;25422;48.286;8.484;2022-11-27T07:45:28;94830.75;;;-1.16;100.00
39739;BME280;25422;48.286;8.484;2022-11-27T07:47:53;94821.72;;;-1.07;100.00
39739;BME280;25422;48.286;8.484;2022-11-27T07:50:19;94820.56;;;-1.02;100.00
39739;BME280;25422;48.286;8.484;2022-11-27T07:52:44;94819.31;;;-0.94;100.00
39739;BME280;25422;48.286;8.484;2022-11-27T07:55:10;94828.69;;;-0.93;100.00
39739;BME280;25422;48.286;8.484;2022-11-27T07:57:35;94825.44;;;-0.81;100.00
39739;BME280;25422;48.286;8.484;2022-11-27T08:00:01;94825.66;;;-0.86;100.00
39739;BME280;25422;48.286;8.484;2022-11-27T08:02:26;94826.16;;;-0.79;100.00
39739;BME280;25422;48.286;8.484;2022-11-27T08:04:51;94824.94;;;-0.72;100.00
39739;BME280;25422;48.286;8.484;2022-11-27T08:07:17;94830.56;;;-0.65;100.00
39739;BME280;25422;48.286;8.484;2022-11-27T08:09:43;94838.56;;;-0.55;100.00
39739;BME280;25422;48.286;8.484;2022-11-27T08:12:08;94834.38;;;-0.26;100.00
39739;BME280;25422;48.286;8.484;2022-11-27T08:14:34;94839.06;;;-0.18;100.00
39739;BME280;25422;48.286;8.484;2022-11-27T08:16:59;94846.25;;;-0.09;100.00
39739;BME280;25422;48.286;8.484;2022-11-27T08:19:25;94841.97;;;0.06;100.00
39739;BME280;25422;48.286;8.484;2022-11-27T08:21:50;94840.03;;;0.10;100.00
39739;BME280;25422;48.286;8.484;2022-11-27T08:24:15;94833.16;;;0.25;100.00
39739;BME280;25422;48.286;8.484;2022-11-27T08:26:41;94822.13;;;0.52;100.00
39739;BME280;25422;48.286;8.484;2022-11-27T08:29:10;94831.41;;;0.54;100.00
39739;BME280;25422;48.286;8.484;2022-11-27T08:31:36;94832.63;;;0.48;100.00
39739;BME280;25422;48.286;8.484;2022-11-27T08:34:01;94833.34;;;0.36;100.00
39739;BME280;25422;48.286;8.484;2022-11-27T08:36:26;94827.47;;;0.20;100.00
39739;BME280;25422;48.286;8.484;2022-11-27T08:38:53;94823.84;;;0.08;100.00
39739;BME280;25422;48.286;8.484;2022-11-27T08:41:18;94817.88;;;0.07;100.00
39739;BME280;25422;48.286;8.484;2022-11-27T08:43:44;94817.44;;;0.01;100.00
39739;BME280;25422;48.286;8.484;2022-11-27T08:46:09;94815.03;;;-0.03;100.00
39739;BME280;25422;48.286;8.484;2022-11-27T08:48:35;94805.13;;;0.06;100.00
39739;BME280;25422;48.286;8.484;2022-11-27T08:51:09;94807.69;;;0.06;100.00
39739;BME280;25422;48.286;8.484;2022-11-27T08:53:36;94811.56;;;0.13;100.00
39739;BME280;25422;48.286;8.484;2022-11-27T08:56:10;94808.00;;;0.30;100.00
39739;BME280;25422;48.286;8.484;2022-11-27T08:58:38;94799.03;;;0.50;100.00
39739;BME280;25422;48.286;8.484;2022-11-27T09:01:26;94788.75;;;0.64;100.00
39739;BME280;25422;48.286;8.484;2022-11-27T09:03:52;94783.25;;;0.98;100.00
39739;BME280;25422;48.286;8.484;2022-11-27T09:06:23;94787.75;;;0.94;100.00
39739;BME280;25422;48.286;8.484;2022-11-27T09:08:49;94785.31;;;1.06;100.00
39739;BME280;25422;48.286;8.484;2022-11-27T09:11:17;94781.81;;;1.34;100.00
39739;BME280;25422;48.286;8.484;2022-11-27T09:13:44;94778.97;;;1.39;100.00
39739;BME280;25422;48.286;8.484;2022-11-27T09:16:12;94779.78;;;1.39;100.00
39739;BME280;25422;48.286;8.484;2022-11-27T09:18:39;94780.09;;;1.47;100.00
39739;BME280;25422;48.286;8.484;2022-11-27T09:21:07;94778.63;;;1.30;100.00
39739;BME280;25422;48.286;8.484;2022-11-27T09:23:33;94772.97;;;1.11;100.00
39739;BME280;25422;48.286;8.484;2022-11-27T09:26:00;94774.53;;;1.13;100.00
39739;BME280;25422;48.286;8.484;2022-11-27T09:28:26;94770.94;;;1.16;100.00
39739;BME280;25422;48.286;8.484;2022-11-27T09:30:56;94767.72;;;1.12;100.00
39739;BME280;25422;48.286;8.484;2022-11-27T09:33:22;94762.19;;;1.18;100.00
39739;BME280;25422;48.286;8.484;2022-11-27T09:35:47;94760.06;;;1.25;100.00
39739;BME280;25422;48.286;8.484;2022-11-27T09:38:12;94758.44;;;1.37;100.00
39739;BME280;25422;48.286;8.484;2022-11-27T09:40:44;94764.22;;;1.41;100.00
39739;BME280;25422;48.286;8.484;2022-11-27T09:43:12;94759.59;;;1.46;100.00
39739;BME280;25422;48.286;8.484;2022-11-27T09:45:45;94759.09;;;1.54;100.00
39739;BME280;25422;48.286;8.484;2022-11-27T09:48:18;94757.22;;;1.43;100.00
39739;BME280;25422;48.286;8.484;2022-11-27T09:50:47;94755.50;;;1.56;100.00
39739;BME280;25422;48.286;8.484;2022-11-27T09:55:51;94753.41;;;1.61;100.00
39739;BME280;25422;48.286;8.484;2022-11-27T10:00:46;94750.03;;;1.87;100.00
39739;BME280;25422;48.286;8.484;2022-11-27T10:03:13;94746.66;;;1.99;100.00
39739;BME280;25422;48.286;8.484;2022-11-27T10:11:35;94737.25;;;2.11;100.00
39739;BME280;25422;48.286;8.484;2022-11-27T10:16:49;94726.56;;;2.41;100.00
39739;BME280;25422;48.286;8.484;2022-11-27T10:25:25;94709.38;;;2.16;100.00
39739;BME280;25422;48.286;8.484;2022-11-27T10:28:13;94711.03;;;2.04;100.00
39739;BME280;25422;48.286;8.484;2022-11-27T10:33:48;94714.00;;;2.24;100.00
39739;BME280;25422;48.286;8.484;2022-11-27T10:36:29;94713.59;;;2.17;100.00
39739;BME280;25422;48.286;8.484;2022-11-27T10:38:55;94712.88;;;2.15;100.00
39739;BME280;25422;48.286;8.484;2022-11-27T10:44:49;94699.81;;;2.42;100.00
39739;BME280;25422;48.286;8.484;2022-11-27T10:47:17;94695.09;;;2.23;100.00
39739;BME280;25422;48.286;8.484;2022-11-27T10:49:46;94696.88;;;2.23;100.00
39739;BME280;25422;48.286;8.484;2022-11-27T10:52:16;94678.06;;;2.21;100.00
39739;BME280;25422;48.286;8.484;2022-11-27T10:54:44;94678.41;;;2.16;100.00
39739;BME280;25422;48.286;8.484;2022-11-27T10:57:37;94679.44;;;2.13;100.00
39739;BME280;25422;48.286;8.484;2022-11-27T11:00:21;94677.03;;;2.10;100.00
39739;BME280;25422;48.286;8.484;2022-11-27T11:02:48;94677.50;;;2.41;100.00
39739;BME280;25422;48.286;8.484;2022-11-27T11:07:53;94657.50;;;2.56;100.00
39739;BME280;25422;48.286;8.484;2022-11-27T11:10:26;94644.22;;;2.49;100.00
39739;BME280;25422;48.286;8.484;2022-11-27T11:13:25;94631.22;;;2.51;100.00
39739;BME280;25422;48.286;8.484;2022-11-27T11:16:02;94640.38;;;2.55;100.00
39739;BME280;25422;48.286;8.484;2022-11-27T11:18:30;94627.56;;;2.53;100.00
39739;BME280;25422;48.286;8.484;2022-11-27T11:21:01;94625.66;;;2.44;100.00
39739;BME280;25422;48.286;8.484;2022-11-27T11:23:35;94624.97;;;2.29;100.00
39739;BME280;25422;48.286;8.484;2022-11-27T11:26:12;94623.22;;;2.17;100.00
39739;BME280;25422;48.286;8.484;2022-11-27T11:29:00;94619.63;;;2.19;100.00
39739;BME280;25422;48.286;8.484;2022-11-27T11:31:32;94617.16;;;2.18;100.00
39739;BME280;25422;48.286;8.484;2022-11-27T11:34:01;94602.06;;;2.25;100.00
39739;BME280;25422;48.286;8.484;2022-11-27T11:36:27;94610.03;;;2.09;100.00
39739;BME280;25422;48.286;8.484;2022-11-27T11:38:53;94606.66;;;1.95;100.00
39739;BME280;25422;48.286;8.484;2022-11-27T11:41:19;94612.34;;;2.00;100.00
39739;BME280;25422;48.286;8.484;2022-11-27T11:43:59;94611.41;;;2.01;100.00
39739;BME280;25422;48.286;8.484;2022-11-27T11:46:28;94608.59;;;2.05;100.00
39739;BME280;25422;48.286;8.484;2022-11-27T11:48:56;94617.47;;;2.13;100.00
39739;BME280;25422;48.286;8.484;2022-11-27T11:51:39;94618.75;;;2.08;100.00
39739;BME280;25422;48.286;8.484;2022-11-27T11:54:48;94600.22;;;2.14;100.00
39739;BME280;25422;48.286;8.484;2022-11-27T11:57:39;94598.91;;;2.08;100.00
39739;BME280;25422;48.286;8.484;2022-11-27T12:00:13;94593.31;;;2.14;100.00
39739;BME280;25422;48.286;8.484;2022-11-27T12:11:15;94587.03;;;2.06;100.00
39739;BME280;25422;48.286;8.484;2022-11-27T12:21:25;94569.09;;;2.04;100.00
39739;BME280;25422;48.286;8.484;2022-11-27T12:29:33;94549.53;;;2.13;100.00
39739;BME280;25422;48.286;8.484;2022-11-27T12:32:27;94549.88;;;2.08;100.00
39739;BME280;25422;48.286;8.484;2022-11-27T12:38:00;94545.22;;;2.13;100.00
39739;BME280;25422;48.286;8.484;2022-11-27T12:40:31;94555.53;;;2.13;100.00
39739;BME280;25422;48.286;8.484;2022-11-27T12:45:39;94558.13;;;2.38;100.00
39739;BME280;25422;48.286;8.484;2022-11-27T12:48:21;94554.59;;;2.14;100.00
39739;BME280;25422;48.286;8.484;2022-11-27T12:51:14;94549.34;;;2.16;100.00
39739;BME280;25422;48.286;8.484;2022-11-27T12:53:44;94557.50;;;2.10;100.00
39739;BME280;25422;48.286;8.484;2022-11-27T12:59:13;94542.38;;;1.92;100.00
39739;BME280;25422;48.286;8.484;2022-11-27T13:02:04;94535.66;;;2.02;100.00
39739;BME280;25422;48.286;8.484;2022-11-27T13:07:10;94530.22;;;1.81;100.00
39739;BME280;25422;48.286;8.484;2022-11-27T13:09:55;94517.88;;;1.74;100.00
39739;BME280;25422;48.286;8.484;2022-11-27T13:12:28;94519.50;;;1.75;100.00
39739;BME280;25422;48.286;8.484;2022-11-27T13:15:02;94518.06;;;1.71;100.00
39739;BME280;25422;48.286;8.484;2022-11-27T13:17:40;94511.88;;;1.73;100.00
39739;BME280;25422;48.286;8.484;2022-11-27T13:20:15;94514.34;;;1.75;100.00
39739;BME280;25422;48.286;8.484;2022-11-27T13:22:42;94518.91;;;1.71;100.00
39739;BME280;25422;48.286;8.484;2022-11-27T13:25:12;94510.16;;;1.74;100.00
39739;BME280;25422;48.286;8.484;2022-11-27T13:27:42;94507.75;;;1.71;100.00
39739;BME280;25422;48.286;8.484;2022-11-27T13:30:18;94505.69;;;1.76;100.00
39739;BME280;25422;48.286;8.484;2022-11-27T13:32:51;94499.75;;;1.62;100.00
39739;BME280;25422;48.286;8.484;2022-11-27T13:35:30;94501.06;;;1.68;100.00
39739;BME280;25422;48.286;8.484;2022-11-27T13:38:19;94500.03;;;1.71;100.00
39739;BME280;25422;48.286;8.484;2022-11-27T13:40:47;94486.31;;;1.70;100.00
39739;BME280;25422;48.286;8.484;2022-11-27T13:43:43;94489.41;;;1.62;100.00
39739;BME280;25422;48.286;8.484;2022-11-27T13:46:23;94483.00;;;1.68;100.00
39739;BME280;25422;48.286;8.484;2022-11-27T13:48:58;94489.00;;;1.68;100.00
39739;BME280;25422;48.286;8.484;2022-11-27T13:51:30;94469.53;;;1.64;100.00
39739;BME280;25422;48.286;8.484;2022-11-27T13:56:32;94462.59;;;1.65;100.00
39739;BME280;25422;48.286;8.484;2022-11-27T13:58:57;94460.78;;;1.54;100.00
39739;BME280;25422;48.286;8.484;2022-11-27T14:01:24;94457.25;;;1.55;100.00
39739;BME280;25422;48.286;8.484;2022-11-27T14:03:50;94444.38;;;1.55;100.00
39739;BME280;25422;48.286;8.484;2022-11-27T14:06:17;94445.91;;;1.58;100.00
39739;BME280;25422;48.286;8.484;2022-11-27T14:08:51;94442.31;;;1.60;100.00
39739;BME280;25422;48.286;8.484;2022-11-27T14:11:32;94451.19;;;1.56;100.00
39739;BME280;25422;48.286;8.484;2022-11-27T14:13:59;94451.78;;;1.60;100.00
39739;BME280;25422;48.286;8.484;2022-11-27T14:16:33;94446.50;;;1.61;100.00
39739;BME280;25422;48.286;8.484;2022-11-27T14:19:02;94452.78;;;1.70;100.00
39739;BME280;25422;48.286;8.484;2022-11-27T14:21:38;94454.84;;;1.65;100.00
39739;BME280;25422;48.286;8.484;2022-11-27T14:24:33;94437.72;;;1.64;100.00
39739;BME280;25422;48.286;8.484;2022-11-27T14:27:08;94432.91;;;1.59;100.00
39739;BME280;25422;48.286;8.484;2022-11-27T14:29:39;94430.88;;;1.51;100.00
39739;BME280;25422;48.286;8.484;2022-11-27T14:32:10;94425.13;;;1.48;100.00
39739;BME280;25422;48.286;8.484;2022-11-27T14:34:36;94423.25;;;1.50;100.00
39739;BME280;25422;48.286;8.484;2022-11-27T14:37:01;94415.16;;;1.55;100.00
39739;BME280;25422;48.286;8.484;2022-11-27T14:39:34;94417.03;;;1.52;100.00
39739;BME280;25422;48.286;8.484;2022-11-27T14:42:05;94417.16;;;1.51;100.00